createdAt,value
2019-03-22T00:02:17.001Z,99.90
2019-03-22T00:04:47.389Z,99.90
2019-03-22T00:07:17.596Z,99.90
2019-03-22T00:09:47.826Z,99.90
2019-03-22T00:12:18.112Z,99.90
2019-03-22T00:14:48.313Z,99.90
2019-03-22T00:17:19.340Z,99.90
2019-03-22T00:19:49.950Z,99.90
2019-03-22T00:22:20.373Z,99.90
2019-03-22T00:24:50.853Z,99.90
2019-03-22T00:27:21.327Z,99.90
2019-03-22T00:29:51.677Z,99.90
2019-03-22T00:32:21.949Z,99.90
2019-03-22T00:34:52.518Z,99.90
2019-03-22T00:37:22.864Z,99.90
2019-03-22T00:39:53.232Z,99.90
2019-03-22T00:42:23.496Z,99.90
2019-03-22T00:44:53.911Z,99.90
2019-03-22T00:47:24.425Z,99.90
2019-03-22T00:49:54.573Z,99.90
2019-03-22T00:52:24.861Z,99.90
2019-03-22T00:54:55.093Z,99.90
2019-03-22T00:57:28.832Z,99.90
2019-03-22T00:59:57.216Z,99.90
2019-03-22T01:02:27.678Z,99.90
2019-03-22T01:04:58.145Z,99.90
2019-03-22T01:07:28.645Z,99.90
2019-03-22T01:09:59.120Z,99.90
2019-03-22T01:12:29.341Z,99.90
2019-03-22T01:14:59.801Z,99.90
2019-03-22T01:17:30.289Z,99.90
2019-03-22T01:20:00.661Z,99.90
2019-03-22T01:22:30.945Z,99.90
2019-03-22T01:25:01.509Z,99.90
2019-03-22T01:27:40.489Z,99.90
2019-03-22T01:30:05.421Z,99.90
2019-03-22T01:32:35.687Z,99.90
2019-03-22T01:35:07.993Z,99.90
2019-03-22T01:37:38.365Z,99.90
2019-03-22T01:40:10.874Z,99.90
2019-03-22T01:42:41.232Z,99.90
2019-03-22T01:45:13.046Z,99.90
2019-03-22T01:47:43.584Z,99.90
2019-03-22T01:50:15.800Z,99.90
2019-03-22T01:52:46.191Z,99.90
2019-03-22T01:55:16.524Z,99.90
2019-03-22T01:57:53.093Z,99.90
2019-03-22T02:00:18.936Z,99.90
2019-03-22T02:02:49.288Z,99.90
2019-03-22T02:05:19.803Z,99.90
2019-03-22T02:07:50.092Z,99.90
2019-03-22T02:10:20.602Z,99.90
2019-03-22T02:12:50.951Z,99.90
2019-03-22T02:15:21.249Z,99.90
2019-03-22T02:17:51.596Z,99.90
2019-03-22T02:20:21.909Z,99.90
2019-03-22T02:22:52.212Z,99.90
2019-03-22T02:25:22.482Z,99.90
2019-03-22T02:28:03.507Z,99.90
2019-03-22T02:30:25.089Z,99.90
2019-03-22T02:32:55.613Z,99.90
2019-03-22T02:35:29.108Z,99.90
2019-03-22T02:37:57.783Z,99.90
2019-03-22T02:40:27.926Z,99.90
2019-03-22T02:42:58.209Z,99.90
2019-03-22T02:45:28.611Z,99.90
2019-03-22T02:47:58.886Z,99.90
2019-03-22T02:50:29.213Z,99.90
2019-03-22T02:52:59.505Z,99.90
2019-03-22T02:55:29.789Z,99.90
2019-03-22T02:58:00.320Z,99.90
2019-03-22T03:00:30.673Z,99.90
2019-03-22T03:03:01.167Z,99.90
2019-03-22T03:05:31.528Z,99.90
2019-03-22T03:08:01.733Z,99.90
2019-03-22T03:10:31.958Z,99.90
2019-03-22T03:13:02.366Z,99.90
2019-03-22T03:15:32.660Z,99.90
2019-03-22T03:18:03.088Z,99.90
2019-03-22T03:20:33.633Z,99.90
2019-03-22T03:23:03.982Z,99.90
2019-03-22T03:25:34.205Z,99.90
2019-03-22T03:28:04.569Z,99.90
2019-03-22T03:30:34.971Z,99.90
2019-03-22T03:33:05.327Z,99.90
2019-03-22T03:35:35.637Z,99.90
2019-03-22T03:38:06.359Z,99.90
2019-03-22T03:40:36.788Z,99.90
2019-03-22T03:43:07.243Z,99.90
2019-03-22T03:45:37.809Z,99.90
2019-03-22T03:48:09.743Z,99.90
2019-03-22T03:50:40.110Z,99.90
2019-03-22T03:53:10.433Z,99.90
2019-03-22T03:55:40.846Z,99.90
2019-03-22T03:58:11.144Z,99.90
2019-03-22T04:00:41.445Z,99.90
2019-03-22T04:03:11.977Z,99.90
2019-03-22T04:05:42.411Z,99.90
2019-03-22T04:08:12.918Z,99.90
2019-03-22T04:10:43.252Z,99.90
2019-03-22T04:13:13.747Z,99.90
2019-03-22T04:15:44.090Z,99.90
2019-03-22T04:18:14.428Z,99.90
2019-03-22T04:20:44.862Z,99.90
2019-03-22T04:23:15.222Z,99.90
2019-03-22T04:25:45.733Z,99.90
2019-03-22T04:28:17.887Z,99.90
2019-03-22T04:30:48.555Z,99.90
2019-03-22T04:33:18.994Z,99.90
2019-03-22T04:35:49.528Z,99.90
2019-03-22T04:38:20.009Z,99.90
2019-03-22T04:40:50.973Z,99.90
2019-03-22T04:43:21.533Z,99.90
2019-03-22T04:45:53.167Z,99.90
2019-03-22T04:48:26.995Z,99.90
2019-03-22T04:50:58.848Z,99.90
2019-03-22T04:53:32.253Z,99.90
2019-03-22T04:56:04.060Z,99.90
2019-03-22T04:58:36.421Z,99.90
2019-03-22T05:01:08.349Z,99.90
2019-03-22T05:03:39.682Z,99.90
2019-03-22T05:06:11.682Z,99.90
2019-03-22T05:08:42.800Z,99.90
2019-03-22T05:11:15.051Z,99.90
2019-03-22T05:13:48.079Z,99.90
2019-03-22T05:16:20.695Z,99.90
2019-03-22T05:18:52.639Z,99.90
2019-03-22T05:21:25.287Z,99.90
2019-03-22T05:23:59.008Z,99.90
2019-03-22T05:26:31.537Z,99.90
2019-03-22T05:29:02.687Z,99.90
2019-03-22T05:31:45.187Z,99.90
2019-03-22T05:34:15.866Z,99.90
2019-03-22T05:36:46.161Z,99.90
2019-03-22T05:39:16.454Z,99.90
2019-03-22T05:41:46.805Z,99.90
2019-03-22T05:44:16.958Z,99.90
2019-03-22T05:46:48.987Z,99.90
2019-03-22T05:49:19.755Z,99.90
2019-03-22T05:51:50.034Z,99.90
2019-03-22T05:54:20.336Z,99.90
2019-03-22T05:56:50.961Z,99.90
2019-03-22T05:59:21.375Z,99.90
2019-03-22T06:01:51.816Z,99.90
2019-03-22T06:04:22.254Z,99.90
2019-03-22T06:06:52.722Z,99.90
2019-03-22T06:09:23.141Z,99.90
2019-03-22T06:11:54.499Z,99.90
2019-03-22T06:14:25.099Z,99.90
2019-03-22T06:16:55.557Z,99.90
2019-03-22T06:19:26.106Z,99.90
2019-03-22T06:21:56.378Z,99.90
2019-03-22T06:24:26.717Z,99.90
2019-03-22T06:26:57.174Z,99.90
2019-03-22T06:29:27.625Z,99.90
2019-03-22T06:31:57.924Z,99.90
2019-03-22T06:34:28.413Z,99.90
2019-03-22T06:36:58.617Z,99.90
2019-03-22T06:39:28.924Z,99.90
2019-03-22T06:41:59.620Z,99.90
2019-03-22T06:44:29.987Z,99.90
2019-03-22T06:47:00.281Z,99.90
2019-03-22T06:49:30.801Z,99.90
2019-03-22T06:52:01.164Z,99.90
2019-03-22T06:54:32.160Z,99.90
2019-03-22T06:57:02.709Z,99.90
2019-03-22T06:59:33.119Z,99.90
2019-03-22T07:02:03.564Z,99.90
2019-03-22T07:04:34.154Z,99.90
2019-03-22T07:07:04.590Z,99.90
2019-03-22T07:09:35.141Z,99.90
2019-03-22T07:12:05.686Z,99.90
2019-03-22T07:14:36.049Z,99.90
2019-03-22T07:17:06.680Z,99.90
2019-03-22T07:19:37.252Z,99.90
2019-03-22T07:22:07.825Z,99.90
2019-03-22T07:24:38.001Z,99.90
2019-03-22T07:27:08.527Z,99.90
2019-03-22T07:29:38.956Z,99.90
2019-03-22T07:32:09.521Z,99.90
2019-03-22T07:34:40.024Z,99.90
2019-03-22T07:37:10.594Z,99.90
2019-03-22T07:39:40.889Z,99.90
2019-03-22T07:42:11.253Z,99.90
2019-03-22T07:44:41.537Z,99.90
2019-03-22T07:47:12.042Z,99.90
2019-03-22T07:49:42.420Z,99.90
2019-03-22T07:52:12.803Z,99.90
2019-03-22T07:54:43.359Z,99.90
2019-03-22T07:57:13.959Z,99.90
2019-03-22T07:59:44.597Z,99.90
2019-03-22T08:02:15.017Z,99.90
2019-03-22T08:04:45.254Z,99.90
2019-03-22T08:07:15.684Z,99.90
2019-03-22T08:09:46.064Z,99.90
2019-03-22T08:12:19.330Z,99.90
2019-03-22T08:14:48.765Z,99.90
2019-03-22T08:17:19.216Z,99.90
2019-03-22T08:19:49.575Z,99.90
2019-03-22T08:22:20.229Z,99.90
2019-03-22T08:24:50.856Z,99.90
2019-03-22T08:27:21.630Z,99.90
2019-03-22T08:29:52.156Z,99.90
2019-03-22T08:32:22.722Z,99.90
2019-03-22T08:34:53.147Z,99.90
2019-03-22T08:37:23.719Z,99.90
2019-03-22T08:39:55.915Z,99.90
2019-03-22T08:42:26.581Z,99.90
2019-03-22T08:44:57.060Z,99.90
2019-03-22T08:47:33.861Z,99.90
2019-03-22T08:49:59.575Z,99.90
2019-03-22T08:52:30.427Z,99.90
2019-03-22T08:55:00.797Z,99.90
2019-03-22T08:57:31.238Z,99.90
2019-03-22T09:00:01.536Z,99.90
2019-03-22T09:02:31.762Z,99.90
2019-03-22T09:05:02.370Z,99.90
2019-03-22T09:07:32.893Z,99.90
2019-03-22T09:10:05.403Z,99.90
2019-03-22T09:12:35.628Z,99.90
2019-03-22T09:15:08.550Z,99.90
2019-03-22T09:17:38.870Z,99.90
2019-03-22T09:20:11.219Z,99.90
2019-03-22T09:22:41.801Z,99.90
2019-03-22T09:25:12.530Z,99.90
2019-03-22T09:27:42.953Z,99.90
2019-03-22T09:30:14.939Z,99.90
2019-03-22T09:32:45.623Z,99.90
2019-03-22T09:35:16.745Z,99.90
2019-03-22T09:37:47.080Z,99.90
2019-03-22T09:40:17.728Z,99.90
2019-03-22T09:42:48.249Z,99.90
2019-03-22T09:45:18.586Z,99.90
2019-03-22T09:47:49.114Z,99.90
2019-03-22T09:50:19.441Z,99.90
2019-03-22T09:52:49.939Z,99.90
2019-03-22T09:55:20.464Z,99.90
2019-03-22T09:57:51.025Z,99.90
2019-03-22T10:00:32.223Z,99.90
2019-03-22T10:03:03.266Z,99.90
2019-03-22T10:05:33.791Z,99.90
2019-03-22T10:08:16.428Z,99.90
2019-03-22T10:10:47.013Z,99.90
2019-03-22T10:13:17.686Z,99.90
2019-03-22T10:15:48.134Z,99.90
2019-03-22T10:18:18.735Z,99.90
2019-03-22T10:20:49.266Z,99.90
2019-03-22T10:23:22.323Z,99.90
2019-03-22T10:25:51.968Z,99.90
2019-03-22T10:28:22.504Z,99.90
2019-03-22T10:30:53.105Z,99.90
2019-03-22T10:33:23.487Z,93.40
2019-03-22T10:35:54.186Z,99.90
2019-03-22T10:38:31.653Z,99.90
2019-03-22T10:40:57.047Z,99.90
2019-03-22T10:43:27.499Z,96.10
2019-03-22T10:45:58.140Z,99.90
2019-03-22T10:48:28.845Z,99.90
2019-03-22T10:50:59.553Z,99.90
2019-03-22T10:53:30.288Z,95.40
2019-03-22T10:56:02.788Z,97.70
2019-03-22T10:58:33.238Z,99.90
2019-03-22T11:01:03.876Z,99.90
2019-03-22T11:03:34.784Z,99.90
2019-03-22T11:06:05.318Z,94.60
2019-03-22T11:08:35.904Z,92.70
2019-03-22T11:11:06.547Z,91.30
2019-03-22T11:13:37.221Z,82.00
2019-03-22T11:16:08.057Z,85.10
2019-03-22T11:18:38.781Z,93.20
2019-03-22T11:21:09.526Z,76.20
2019-03-22T11:23:40.402Z,83.00
2019-03-22T11:26:11.092Z,90.00
2019-03-22T11:28:41.718Z,74.20
2019-03-22T11:31:12.576Z,65.30
2019-03-22T11:33:43.415Z,75.50
2019-03-22T11:36:14.196Z,76.00
2019-03-22T11:38:44.828Z,69.00
2019-03-22T11:41:15.553Z,62.90
2019-03-22T11:43:46.179Z,64.00
2019-03-22T11:46:17.028Z,65.30
2019-03-22T11:48:47.541Z,62.90
2019-03-22T11:51:19.424Z,60.60
2019-03-22T11:53:50.153Z,59.20
2019-03-22T11:56:20.638Z,64.80
2019-03-22T11:58:53.641Z,57.00
2019-03-22T12:01:23.409Z,54.20
2019-03-22T12:03:54.038Z,56.90
2019-03-22T12:06:24.861Z,56.00
2019-03-22T12:08:55.475Z,55.70
2019-03-22T12:11:26.077Z,55.50
2019-03-22T12:13:56.896Z,56.00
2019-03-22T12:16:27.528Z,55.70
2019-03-22T12:18:58.259Z,55.80
2019-03-22T12:21:40.188Z,59.00
2019-03-22T12:24:18.760Z,52.20
2019-03-22T12:26:49.518Z,52.30
2019-03-22T12:29:20.029Z,53.60
2019-03-22T12:31:50.757Z,55.90
2019-03-22T12:34:21.349Z,51.40
2019-03-22T12:36:52.119Z,50.00
2019-03-22T12:39:22.823Z,50.00
2019-03-22T12:41:53.282Z,51.40
2019-03-22T12:44:23.903Z,52.00
2019-03-22T12:46:54.558Z,58.20
2019-03-22T12:49:25.311Z,57.10
2019-03-22T12:51:56.298Z,56.90
2019-03-22T12:54:27.089Z,65.40
2019-03-22T12:56:58.022Z,64.00
2019-03-22T12:59:28.518Z,76.80
2019-03-22T13:01:59.304Z,76.40
2019-03-22T13:04:32.106Z,74.90
2019-03-22T13:07:02.376Z,72.80
2019-03-22T13:09:33.205Z,72.30
2019-03-22T13:12:03.850Z,81.80
2019-03-22T13:14:34.702Z,81.90
2019-03-22T13:17:05.618Z,73.80
2019-03-22T13:19:36.251Z,73.20
2019-03-22T13:22:06.905Z,74.40
2019-03-22T13:24:37.618Z,67.90
2019-03-22T13:27:08.538Z,70.80
2019-03-22T13:29:39.193Z,72.90
2019-03-22T13:32:09.877Z,65.70
2019-03-22T13:34:40.373Z,63.00
2019-03-22T13:37:11.234Z,57.50
2019-03-22T13:39:42.000Z,57.00
2019-03-22T13:42:12.678Z,57.90
2019-03-22T13:44:43.245Z,56.10
2019-03-22T13:47:13.841Z,60.50
2019-03-22T13:49:44.505Z,58.40
2019-03-22T13:52:15.289Z,60.40
2019-03-22T13:54:45.725Z,61.00
2019-03-22T13:57:16.384Z,60.70
2019-03-22T13:59:48.403Z,64.20
2019-03-22T14:02:22.889Z,64.50
2019-03-22T14:04:52.766Z,63.00
2019-03-22T14:07:23.454Z,64.40
2019-03-22T14:09:54.024Z,63.10
2019-03-22T14:12:24.638Z,68.80
2019-03-22T14:14:55.317Z,69.40
2019-03-22T14:17:25.952Z,66.20
2019-03-22T14:19:56.550Z,68.20
2019-03-22T14:22:27.288Z,68.20
2019-03-22T14:24:57.894Z,68.70
2019-03-22T14:27:28.621Z,72.30
2019-03-22T14:29:59.174Z,65.60
2019-03-22T14:32:29.847Z,68.60
2019-03-22T14:35:02.209Z,64.30
2019-03-22T14:37:32.991Z,61.50
2019-03-22T14:40:04.637Z,60.00
2019-03-22T14:42:35.402Z,62.60
2019-03-22T14:45:09.396Z,59.90
2019-03-22T14:47:39.906Z,58.90
2019-03-22T14:50:11.556Z,58.90
2019-03-22T14:52:42.025Z,58.60
2019-03-22T14:55:13.380Z,58.80
2019-03-22T14:57:49.110Z,62.90
2019-03-22T15:00:16.759Z,59.40
2019-03-22T15:02:47.334Z,61.10
2019-03-22T15:05:17.928Z,61.00
2019-03-22T15:07:48.573Z,59.00
2019-03-22T15:10:19.194Z,58.90
2019-03-22T15:12:50.015Z,59.20
2019-03-22T15:15:25.302Z,59.80
2019-03-22T15:18:03.590Z,60.10
2019-03-22T15:20:50.693Z,60.00
2019-03-22T15:23:25.687Z,60.40
2019-03-22T15:26:14.366Z,63.40
2019-03-22T15:28:46.571Z,64.10
2019-03-22T15:31:35.110Z,64.80
2019-03-22T15:34:22.731Z,67.40
2019-03-22T15:37:15.335Z,67.90
2019-03-22T15:39:49.818Z,71.00
2019-03-22T15:42:20.198Z,72.10
2019-03-22T15:44:50.982Z,72.70
2019-03-22T15:47:21.384Z,73.80
2019-03-22T15:49:51.898Z,73.70
2019-03-22T15:52:22.373Z,75.60
2019-03-22T15:54:53.083Z,77.70
2019-03-22T15:57:23.548Z,78.00
2019-03-22T15:59:54.245Z,77.20
2019-03-22T16:02:24.808Z,78.40
2019-03-22T16:04:56.232Z,77.20
2019-03-22T16:07:26.979Z,77.50
2019-03-22T16:09:57.656Z,79.00
2019-03-22T16:12:28.234Z,81.90
2019-03-22T16:14:58.926Z,82.90
2019-03-22T16:17:29.471Z,81.70
2019-03-22T16:20:00.043Z,83.00
2019-03-22T16:22:30.654Z,86.10
2019-03-22T16:25:00.973Z,86.30
2019-03-22T16:27:31.422Z,89.80
2019-03-22T16:30:02.129Z,91.40
2019-03-22T16:32:32.616Z,92.00
2019-03-22T16:35:04.155Z,91.40
2019-03-22T16:37:34.684Z,91.90
2019-03-22T16:40:07.503Z,92.30
2019-03-22T16:42:38.086Z,93.90
2019-03-22T16:45:10.401Z,93.50
2019-03-22T16:47:40.839Z,95.70
2019-03-22T16:50:23.283Z,98.70
2019-03-22T16:52:53.714Z,99.60
2019-03-22T16:55:24.475Z,99.90
2019-03-22T16:57:55.047Z,99.90
2019-03-22T17:00:25.497Z,99.90
2019-03-22T17:02:55.863Z,99.90
2019-03-22T17:05:26.508Z,99.90
2019-03-22T17:07:56.734Z,99.90
2019-03-22T17:10:27.372Z,99.90
2019-03-22T17:12:57.947Z,99.90
2019-03-22T17:15:28.313Z,99.90
2019-03-22T17:17:58.870Z,99.90
2019-03-22T17:20:29.517Z,99.90
2019-03-22T17:23:00.210Z,99.90
2019-03-22T17:25:31.001Z,99.90
2019-03-22T17:28:01.538Z,99.90
2019-03-22T17:30:31.961Z,99.90
2019-03-22T17:33:02.354Z,99.90
2019-03-22T17:35:32.578Z,99.90
2019-03-22T17:38:03.097Z,99.90
2019-03-22T17:40:33.326Z,99.90
2019-03-22T17:43:03.780Z,99.90
2019-03-22T17:45:34.289Z,99.90
2019-03-22T17:48:04.992Z,99.90
2019-03-22T17:50:35.786Z,99.90
2019-03-22T17:53:06.178Z,99.90
2019-03-22T17:55:36.764Z,99.90
2019-03-22T17:58:07.057Z,99.90
2019-03-22T18:00:37.572Z,99.90
2019-03-22T18:03:08.077Z,99.90
2019-03-22T18:05:38.538Z,99.90
2019-03-22T18:08:08.820Z,99.90
2019-03-22T18:10:39.501Z,99.90
2019-03-22T18:13:10.308Z,99.90
2019-03-22T18:15:40.684Z,99.90
2019-03-22T18:18:11.129Z,99.90
2019-03-22T18:20:41.485Z,99.90
2019-03-22T18:23:11.862Z,99.90
2019-03-22T18:25:42.322Z,99.90
2019-03-22T18:28:12.681Z,99.90
2019-03-22T18:30:43.172Z,99.90
2019-03-22T18:33:13.418Z,99.90
2019-03-22T18:35:43.693Z,99.90
2019-03-22T18:38:14.095Z,99.90
2019-03-22T18:40:44.494Z,99.90
2019-03-22T18:43:14.771Z,99.90
2019-03-22T18:45:45.336Z,99.90
2019-03-22T18:48:15.705Z,99.90
2019-03-22T18:50:56.126Z,99.90
2019-03-22T18:53:18.205Z,99.90
2019-03-22T18:55:48.707Z,99.90
2019-03-22T18:58:19.101Z,99.90
2019-03-22T19:00:49.817Z,99.90
2019-03-22T19:03:20.273Z,99.90
2019-03-22T19:05:50.657Z,99.90
2019-03-22T19:08:21.048Z,99.90
2019-03-22T19:10:51.248Z,99.90
2019-03-22T19:13:30.331Z,99.90
2019-03-22T19:15:53.917Z,99.90
2019-03-22T19:18:24.886Z,99.90
2019-03-22T19:20:55.261Z,99.90
2019-03-22T19:23:25.709Z,99.90
2019-03-22T19:25:56.088Z,99.90
2019-03-22T19:28:26.526Z,99.90
2019-03-22T19:30:56.981Z,99.90
2019-03-22T19:33:27.376Z,99.90
2019-03-22T19:35:57.757Z,99.90
2019-03-22T19:38:28.397Z,99.90
2019-03-22T19:40:58.757Z,99.90
2019-03-22T19:43:28.989Z,99.90
2019-03-22T19:45:59.365Z,99.90
2019-03-22T19:48:30.041Z,99.90
2019-03-22T19:51:00.527Z,99.90
2019-03-22T19:53:30.989Z,99.90
2019-03-22T19:56:01.290Z,99.90
2019-03-22T19:58:31.694Z,99.90
2019-03-22T20:01:01.896Z,99.90
2019-03-22T20:03:32.121Z,99.90
2019-03-22T20:06:02.398Z,99.90
2019-03-22T20:08:32.809Z,99.90
2019-03-22T20:11:03.091Z,99.90
2019-03-22T20:13:33.729Z,99.90
2019-03-22T20:16:04.717Z,99.90
2019-03-22T20:18:34.950Z,99.90
2019-03-22T20:21:05.419Z,99.90
2019-03-22T20:23:36.253Z,99.90
2019-03-22T20:26:06.782Z,99.90
2019-03-22T20:28:37.361Z,99.90
2019-03-22T20:31:07.580Z,99.90
2019-03-22T20:33:37.889Z,99.90
2019-03-22T20:36:08.381Z,99.90
2019-03-22T20:38:38.656Z,99.90
2019-03-22T20:41:09.077Z,99.90
2019-03-22T20:43:39.487Z,99.90
2019-03-22T20:46:09.877Z,99.90
2019-03-22T20:48:40.161Z,99.90
2019-03-22T20:51:10.521Z,99.90
2019-03-22T20:53:40.748Z,99.90
2019-03-22T20:56:11.201Z,99.90
2019-03-22T20:58:41.593Z,99.90
2019-03-22T21:01:11.991Z,99.90
2019-03-22T21:03:42.277Z,99.90
2019-03-22T21:06:12.588Z,99.90
2019-03-22T21:08:42.994Z,99.90
2019-03-22T21:11:13.277Z,99.90
2019-03-22T21:13:44.074Z,99.90
2019-03-22T21:16:14.421Z,99.90
2019-03-22T21:18:44.804Z,99.90
2019-03-22T21:21:15.177Z,99.90
2019-03-22T21:23:45.490Z,99.90
2019-03-22T21:26:15.809Z,99.90
2019-03-22T21:28:46.191Z,99.90
2019-03-22T21:31:16.685Z,99.90
2019-03-22T21:33:47.061Z,99.90
2019-03-22T21:36:17.345Z,99.90
2019-03-22T21:38:47.654Z,99.90
2019-03-22T21:41:17.953Z,99.90
2019-03-22T21:43:48.233Z,99.90
2019-03-22T21:46:18.593Z,99.90
2019-03-22T21:48:48.873Z,99.90
2019-03-22T21:51:19.240Z,99.90
2019-03-22T21:53:49.517Z,99.90
2019-03-22T21:56:19.824Z,99.90
2019-03-22T21:58:50.163Z,99.90
2019-03-22T22:01:20.477Z,99.90
2019-03-22T22:03:50.816Z,99.90
2019-03-22T22:06:21.137Z,99.90
2019-03-22T22:08:52.609Z,99.90
2019-03-22T22:11:27.966Z,99.90
2019-03-22T22:14:01.327Z,99.90
2019-03-22T22:16:37.496Z,99.90
2019-03-22T22:19:09.439Z,99.90
2019-03-22T22:21:40.601Z,99.90
2019-03-22T22:24:10.870Z,99.90
2019-03-22T22:26:41.194Z,99.90
2019-03-22T22:29:11.468Z,99.90
2019-03-22T22:31:41.700Z,99.90
2019-03-22T22:34:11.891Z,99.90
2019-03-22T22:36:42.277Z,99.90
2019-03-22T22:39:12.668Z,99.90
2019-03-22T22:41:43.035Z,99.90
2019-03-22T22:44:13.317Z,99.90
2019-03-22T22:46:43.607Z,99.90
2019-03-22T22:49:14.059Z,99.90
2019-03-22T22:51:44.443Z,99.90
2019-03-22T22:54:14.825Z,99.90
2019-03-22T22:56:45.108Z,99.90
2019-03-22T22:59:15.682Z,99.90
2019-03-22T23:01:45.973Z,99.90
2019-03-22T23:04:16.349Z,99.90
2019-03-22T23:06:46.641Z,99.90
2019-03-22T23:09:16.946Z,99.90
2019-03-22T23:11:47.232Z,99.90
2019-03-22T23:14:17.596Z,99.90
2019-03-22T23:16:47.918Z,99.90
2019-03-22T23:19:18.279Z,99.90
2019-03-22T23:21:48.556Z,99.90
2019-03-22T23:24:18.994Z,99.90
2019-03-22T23:26:49.289Z,99.90
2019-03-22T23:29:19.645Z,99.90
2019-03-22T23:31:49.833Z,99.90
2019-03-22T23:34:20.121Z,99.90
2019-03-22T23:36:50.415Z,99.90
2019-03-22T23:39:20.818Z,99.90
2019-03-22T23:41:51.257Z,99.90
2019-03-22T23:44:21.485Z,99.90
2019-03-22T23:46:51.744Z,99.90
2019-03-22T23:49:33.881Z,99.90
2019-03-22T23:52:04.304Z,99.90
2019-03-22T23:54:34.718Z,99.90
2019-03-22T23:57:04.977Z,99.90
2019-03-22T23:59:35.205Z,99.90
